createdAt,value
2018-10-21T00:02:06.891Z,100958.28
2018-10-21T00:04:35.753Z,100952.31
2018-10-21T00:07:04.397Z,100952.47
2018-10-21T00:09:33.042Z,100950.64
2018-10-21T00:12:01.728Z,100943.82
2018-10-21T00:14:30.355Z,100942.66
2018-10-21T00:16:59.062Z,100940.33
2018-10-21T00:19:28.022Z,100942.81
2018-10-21T00:21:56.692Z,100938.13
2018-10-21T00:24:25.399Z,100938.59
2018-10-21T00:26:54.149Z,100940.85
2018-10-21T00:29:23.135Z,100937.83
2018-10-21T00:31:51.754Z,100942.39
2018-10-21T00:34:20.396Z,100934.09
2018-10-21T00:36:49.063Z,100941.41
2018-10-21T00:39:17.944Z,100939.40
2018-10-21T00:41:46.741Z,100940.34
2018-10-21T00:44:15.430Z,100936.88
2018-10-21T00:46:44.154Z,100941.11
2018-10-21T00:49:12.778Z,100945.28
2018-10-21T00:51:41.447Z,100941.13
2018-10-21T00:54:14.065Z,100943.27
2018-10-21T00:56:43.393Z,100942.61
2018-10-21T00:59:12.024Z,100939.28
2018-10-21T01:01:40.893Z,100944.44
2018-10-21T01:04:10.231Z,100940.95
2018-10-21T01:06:39.552Z,100940.61
2018-10-21T01:09:11.477Z,100942.45
2018-10-21T01:11:41.453Z,100936.30
2018-10-21T01:14:10.793Z,100939.47
2018-10-21T01:16:39.555Z,100940.30
2018-10-21T01:19:08.453Z,100942.96
2018-10-21T01:21:37.465Z,100944.97
2018-10-21T01:24:07.542Z,100949.80
2018-10-21T01:26:36.161Z,100945.76
2018-10-21T01:29:05.159Z,100953.26
2018-10-21T01:31:34.661Z,100954.56
2018-10-21T01:34:03.384Z,100950.20
2018-10-21T01:36:32.344Z,100961.14
2018-10-21T01:39:01.737Z,100963.43
2018-10-21T01:41:30.791Z,100959.75
2018-10-21T01:43:59.681Z,100961.91
2018-10-21T01:46:28.367Z,100961.45
2018-10-21T01:48:57.056Z,100958.36
2018-10-21T01:51:25.689Z,100953.17
2018-10-21T01:53:54.337Z,100957.25
2018-10-21T01:56:22.998Z,100962.43
2018-10-21T01:58:51.694Z,100965.61
2018-10-21T02:01:20.563Z,100961.11
2018-10-21T02:03:49.267Z,100961.31
2018-10-21T02:06:17.877Z,100959.48
2018-10-21T02:08:46.510Z,100959.48
2018-10-21T02:11:15.122Z,100965.30
2018-10-21T02:13:43.851Z,100967.95
2018-10-21T02:16:12.504Z,100965.63
2018-10-21T02:18:41.838Z,100970.78
2018-10-21T02:21:10.920Z,100971.10
2018-10-21T02:23:39.702Z,100971.26
2018-10-21T02:26:08.386Z,100973.27
2018-10-21T02:28:37.011Z,100975.77
2018-10-21T02:31:05.746Z,100975.43
2018-10-21T02:33:34.457Z,100979.28
2018-10-21T02:36:03.362Z,100981.77
2018-10-21T02:38:32.093Z,100978.63
2018-10-21T02:41:22.105Z,100974.14
2018-10-21T02:43:51.172Z,100969.61
2018-10-21T02:46:21.069Z,100979.09
2018-10-21T02:48:50.117Z,100973.94
2018-10-21T02:51:18.938Z,100972.95
2018-10-21T02:53:47.737Z,100967.61
2018-10-21T02:56:16.412Z,100966.27
2018-10-21T02:58:45.055Z,100972.79
2018-10-21T03:01:13.707Z,100974.78
2018-10-21T03:03:42.595Z,100981.92
2018-10-21T03:06:11.319Z,100975.94
2018-10-21T03:08:40.425Z,100975.43
2018-10-21T03:11:09.085Z,100974.95
2018-10-21T03:13:37.710Z,100977.64
2018-10-21T03:16:06.914Z,100982.80
2018-10-21T03:18:35.569Z,100978.80
2018-10-21T03:21:04.969Z,100976.63
2018-10-21T03:23:34.349Z,100983.91
2018-10-21T03:26:03.857Z,100977.94
2018-10-21T03:28:33.000Z,100982.30
2018-10-21T03:31:01.936Z,100982.59
2018-10-21T03:33:30.984Z,100972.64
2018-10-21T03:35:59.871Z,100980.95
2018-10-21T03:38:28.574Z,100983.25
2018-10-21T03:40:57.630Z,100982.61
2018-10-21T03:43:26.293Z,100985.94
2018-10-21T03:45:55.053Z,100987.94
2018-10-21T03:48:24.033Z,100996.09
2018-10-21T03:50:52.760Z,100995.56
2018-10-21T03:53:21.401Z,100995.41
2018-10-21T03:55:50.089Z,100998.24
2018-10-21T03:58:18.726Z,100995.92
2018-10-21T04:00:47.429Z,100997.91
2018-10-21T04:03:16.054Z,101000.23
2018-10-21T04:05:44.729Z,100994.91
2018-10-21T04:08:13.505Z,100994.92
2018-10-21T04:10:42.175Z,100990.75
2018-10-21T04:13:10.801Z,100999.73
2018-10-21T04:15:39.513Z,100986.11
2018-10-21T04:18:08.142Z,100999.09
2018-10-21T04:20:36.851Z,100995.24
2018-10-21T04:23:05.841Z,100990.46
2018-10-21T04:25:35.490Z,100996.27
2018-10-21T04:28:05.193Z,100990.61
2018-10-21T04:30:35.170Z,100998.27
2018-10-21T04:34:07.975Z,100998.07
2018-10-21T04:36:36.836Z,101002.22
2018-10-21T04:39:44.148Z,101002.87
2018-10-21T04:42:12.789Z,101008.52
2018-10-21T04:44:41.485Z,101017.16
2018-10-21T04:47:10.247Z,101017.66
2018-10-21T04:49:39.108Z,101024.14
2018-10-21T04:52:07.879Z,101017.16
2018-10-21T04:54:37.068Z,101016.53
2018-10-21T04:57:07.829Z,101017.85
2018-10-21T04:59:37.800Z,101012.04
2018-10-21T05:02:07.231Z,101010.86
2018-10-21T05:04:36.005Z,101009.84
2018-10-21T05:07:05.098Z,101017.13
2018-10-21T05:09:33.775Z,101018.74
2018-10-21T05:12:02.417Z,101021.87
2018-10-21T05:14:31.152Z,101021.14
2018-10-21T05:16:59.842Z,101027.56
2018-10-21T05:19:28.534Z,101013.73
2018-10-21T05:21:57.414Z,101019.50
2018-10-21T05:24:26.264Z,101023.22
2018-10-21T05:26:55.980Z,101024.98
2018-10-21T05:29:24.638Z,101024.04
2018-10-21T05:31:53.257Z,101024.36
2018-10-21T05:34:21.944Z,101022.52
2018-10-21T05:36:51.444Z,101033.92
2018-10-21T05:39:20.810Z,101033.02
2018-10-21T05:41:50.183Z,101044.30
2018-10-21T05:44:19.565Z,101046.90
2018-10-21T05:46:50.541Z,101059.14
2018-10-21T05:49:19.284Z,101064.18
2018-10-21T05:51:49.441Z,101062.74
2018-10-21T05:54:19.622Z,101068.11
2018-10-21T05:56:49.572Z,101064.88
2018-10-21T05:59:18.754Z,101068.61
2018-10-21T06:01:48.053Z,101071.61
2018-10-21T06:04:18.023Z,101072.68
2018-10-21T06:06:46.826Z,101077.23
2018-10-21T06:09:15.904Z,101084.41
2018-10-21T06:11:44.945Z,101086.45
2018-10-21T06:14:13.634Z,101087.81
2018-10-21T06:16:48.315Z,101087.14
2018-10-21T06:19:20.582Z,101091.14
2018-10-21T06:21:49.473Z,101088.81
2018-10-21T06:24:18.230Z,101098.86
2018-10-21T06:26:47.518Z,101098.84
2018-10-21T06:29:16.160Z,101103.18
2018-10-21T06:31:44.806Z,101110.66
2018-10-21T06:34:13.586Z,101108.33
2018-10-21T06:36:42.345Z,101111.66
2018-10-21T06:39:11.445Z,101116.17
2018-10-21T06:41:40.796Z,101121.49
2018-10-21T06:44:09.533Z,101125.49
2018-10-21T06:46:38.961Z,101132.83
2018-10-21T06:49:07.798Z,101132.68
2018-10-21T06:51:36.624Z,101126.48
2018-10-21T06:54:05.823Z,101128.31
2018-10-21T06:56:34.680Z,101133.34
2018-10-21T06:59:03.513Z,101132.97
2018-10-21T07:01:33.920Z,101131.63
2018-10-21T07:04:05.186Z,101136.13
2018-10-21T07:06:34.300Z,101136.29
2018-10-21T07:09:05.303Z,101145.45
2018-10-21T07:11:34.083Z,101140.06
2018-10-21T07:14:02.742Z,101135.86
2018-10-21T07:16:32.819Z,101144.94
2018-10-21T07:19:01.735Z,101141.23
2018-10-21T07:21:30.581Z,101148.16
2018-10-21T07:23:59.305Z,101151.60
2018-10-21T07:26:27.989Z,101152.67
2018-10-21T07:28:57.316Z,101149.89
2018-10-21T07:31:26.329Z,101146.39
2018-10-21T07:33:55.071Z,101149.02
2018-10-21T07:36:23.827Z,101145.75
2018-10-21T07:38:52.715Z,101146.14
2018-10-21T07:41:21.615Z,101153.28
2018-10-21T07:43:50.385Z,101157.62
2018-10-21T07:46:19.123Z,101162.47
2018-10-21T07:48:47.981Z,101167.98
2018-10-21T07:51:16.608Z,101167.29
2018-10-21T07:53:45.260Z,101166.58
2018-10-21T07:56:13.910Z,101171.30
2018-10-21T07:58:42.787Z,101176.70
2018-10-21T08:01:12.057Z,101178.95
2018-10-21T08:03:40.934Z,101181.19
2018-10-21T08:06:23.953Z,101189.51
2018-10-21T08:08:52.753Z,101189.30
2018-10-21T08:11:21.533Z,101200.50
2018-10-21T08:13:50.331Z,101207.38
2018-10-21T08:16:19.169Z,101205.71
2018-10-21T08:18:47.936Z,101210.73
2018-10-21T08:21:16.876Z,101206.22
2018-10-21T08:23:45.750Z,101212.58
2018-10-21T08:26:14.504Z,101214.61
2018-10-21T08:28:43.402Z,101216.48
2018-10-21T08:31:13.154Z,101214.88
2018-10-21T08:33:42.494Z,101216.02
2018-10-21T08:36:11.325Z,101216.17
2018-10-21T08:38:40.016Z,101213.95
2018-10-21T08:41:09.050Z,101210.42
2018-10-21T08:43:38.034Z,101218.66
2018-10-21T08:46:06.816Z,101218.56
2018-10-21T08:48:36.630Z,101219.46
2018-10-21T08:51:05.511Z,101221.36
2018-10-21T08:53:34.214Z,101218.69
2018-10-21T08:56:03.887Z,101219.20
2018-10-21T08:58:33.504Z,101223.89
2018-10-21T09:01:02.283Z,101210.09
2018-10-21T09:03:30.938Z,101212.02
2018-10-21T09:05:59.650Z,101220.92
2018-10-21T09:08:28.330Z,101229.55
2018-10-21T09:10:57.018Z,101225.27
2018-10-21T09:13:25.858Z,101227.82
2018-10-21T09:15:55.023Z,101230.53
2018-10-21T09:18:23.997Z,101227.59
2018-10-21T09:20:52.874Z,101227.70
2018-10-21T09:23:21.546Z,101229.80
2018-10-21T09:25:50.778Z,101227.95
2018-10-21T09:28:19.486Z,101223.38
2018-10-21T09:30:48.209Z,101220.38
2018-10-21T09:33:16.884Z,101226.20
2018-10-21T09:35:45.903Z,101226.26
2018-10-21T09:38:15.142Z,101221.79
2018-10-21T09:40:43.920Z,101223.39
2018-10-21T09:43:12.644Z,101215.45
2018-10-21T09:45:41.524Z,101212.38
2018-10-21T09:48:10.239Z,101211.38
2018-10-21T09:50:39.014Z,101212.96
2018-10-21T09:53:08.006Z,101216.37
2018-10-21T09:55:36.907Z,101210.34
2018-10-21T09:58:06.020Z,101211.62
2018-10-21T10:00:40.926Z,101223.39
2018-10-21T10:03:09.873Z,101217.12
2018-10-21T10:05:38.506Z,101217.77
2018-10-21T10:08:07.214Z,101215.77
2018-10-21T10:10:36.129Z,101216.72
2018-10-21T10:13:04.906Z,101215.80
2018-10-21T10:15:33.816Z,101219.95
2018-10-21T10:18:02.536Z,101212.34
2018-10-21T10:20:31.208Z,101209.63
2018-10-21T10:22:59.889Z,101215.25
2018-10-21T10:25:28.530Z,101201.36
2018-10-21T10:27:57.354Z,101206.30
2018-10-21T10:30:26.349Z,101215.45
2018-10-21T10:32:55.286Z,101207.77
2018-10-21T10:35:23.999Z,101202.84
2018-10-21T10:37:52.655Z,101205.39
2018-10-21T10:40:21.390Z,101204.20
2018-10-21T10:42:50.063Z,101201.66
2018-10-21T10:45:18.729Z,101205.34
2018-10-21T10:47:48.489Z,101199.94
2018-10-21T10:50:17.206Z,101201.42
2018-10-21T10:52:46.044Z,101205.42
2018-10-21T10:55:14.959Z,101206.08
2018-10-21T10:57:43.671Z,101207.22
2018-10-21T11:00:12.925Z,101208.98
2018-10-21T11:02:41.897Z,101208.17
2018-10-21T11:05:11.821Z,101206.45
2018-10-21T11:07:40.482Z,101210.48
2018-10-21T11:10:10.021Z,101212.56
2018-10-21T11:12:39.542Z,101212.84
2018-10-21T11:15:08.874Z,101219.19
2018-10-21T11:17:37.762Z,101219.70
2018-10-21T11:20:06.975Z,101220.81
2018-10-21T11:22:35.694Z,101221.33
2018-10-21T11:25:05.224Z,101221.29
2018-10-21T11:27:34.693Z,101218.14
2018-10-21T11:30:03.333Z,101214.00
2018-10-21T11:32:31.974Z,101211.39
2018-10-21T11:35:00.601Z,101211.48
2018-10-21T11:37:29.525Z,101207.98
2018-10-21T11:39:59.095Z,101209.63
2018-10-21T11:42:28.542Z,101206.19
2018-10-21T11:44:57.338Z,101210.42
2018-10-21T11:47:26.091Z,101208.77
2018-10-21T11:49:54.791Z,101214.83
2018-10-21T11:52:24.065Z,101215.09
2018-10-21T11:54:52.858Z,101212.42
2018-10-21T11:57:22.039Z,101210.61
2018-10-21T11:59:51.622Z,101212.82
2018-10-21T12:02:20.370Z,101208.11
2018-10-21T12:04:49.130Z,101208.54
2018-10-21T12:07:18.564Z,101202.39
2018-10-21T12:09:47.986Z,101207.45
2018-10-21T12:12:16.757Z,101212.25
2018-10-21T12:14:45.475Z,101202.33
2018-10-21T12:17:14.201Z,101198.45
2018-10-21T12:19:43.036Z,101199.94
2018-10-21T12:22:12.376Z,101200.81
2018-10-21T12:24:41.328Z,101192.59
2018-10-21T12:27:10.865Z,101188.00
2018-10-21T12:29:39.702Z,101184.13
2018-10-21T12:32:09.056Z,101182.13
2018-10-21T12:34:38.015Z,101179.14
2018-10-21T12:37:06.879Z,101181.81
2018-10-21T12:39:35.919Z,101177.84
2018-10-21T12:42:04.863Z,101173.50
2018-10-21T12:44:33.680Z,101178.80
2018-10-21T12:47:02.999Z,101172.13
2018-10-21T12:49:31.886Z,101171.63
2018-10-21T12:52:01.121Z,101175.28
2018-10-21T12:54:30.898Z,101183.46
2018-10-21T12:56:59.905Z,101182.51
2018-10-21T12:59:29.262Z,101185.75
2018-10-21T13:01:58.135Z,101192.24
2018-10-21T13:04:27.522Z,101189.69
2018-10-21T13:06:56.768Z,101183.22
2018-10-21T13:09:26.209Z,101179.08
2018-10-21T13:11:55.560Z,101180.06
2018-10-21T13:14:24.277Z,101177.45
2018-10-21T13:16:53.030Z,101168.48
2018-10-21T13:19:21.757Z,101169.06
2018-10-21T13:21:50.581Z,101174.11
2018-10-21T13:24:19.224Z,101175.87
2018-10-21T13:26:48.270Z,101177.48
2018-10-21T13:29:16.982Z,101169.55
2018-10-21T13:31:45.810Z,101173.07
2018-10-21T13:34:15.140Z,101168.11
2018-10-21T13:36:44.013Z,101162.11
2018-10-21T13:39:14.453Z,101168.00
2018-10-21T13:41:44.545Z,101165.90
2018-10-21T13:44:13.310Z,101159.63
2018-10-21T13:46:42.750Z,101163.01
2018-10-21T13:49:12.515Z,101161.50
2018-10-21T13:51:41.500Z,101172.53
2018-10-21T13:54:10.433Z,101163.70
2018-10-21T13:56:39.214Z,101171.48
2018-10-21T13:59:07.904Z,101166.65
2018-10-21T14:01:36.704Z,101167.17
2018-10-21T14:04:05.498Z,101168.34
2018-10-21T14:06:34.353Z,101164.87
2018-10-21T14:09:03.205Z,101171.33
2018-10-21T14:11:32.193Z,101168.52
2018-10-21T14:14:00.843Z,101167.61
2018-10-21T14:16:29.746Z,101168.61
2018-10-21T14:18:58.548Z,101165.05
2018-10-21T14:21:27.187Z,101165.77
2018-10-21T14:23:55.850Z,101168.19
2018-10-21T14:26:24.719Z,101167.48
2018-10-21T14:28:53.465Z,101165.77
2018-10-21T14:31:22.262Z,101163.78
2018-10-21T14:33:50.937Z,101157.00
2018-10-21T14:36:20.125Z,101156.74
2018-10-21T14:38:49.016Z,101151.36
2018-10-21T14:41:17.739Z,101152.35
2018-10-21T14:43:46.426Z,101150.45
2018-10-21T14:46:15.257Z,101147.22
2018-10-21T14:48:44.051Z,101151.35
2018-10-21T14:51:12.890Z,101151.80
2018-10-21T14:53:41.774Z,101161.59
2018-10-21T14:56:10.644Z,101158.28
2018-10-21T14:58:39.523Z,101155.52
2018-10-21T15:01:08.234Z,101156.12
2018-10-21T15:03:37.075Z,101152.81
2018-10-21T15:06:06.457Z,101146.81
2018-10-21T15:08:35.283Z,101151.55
2018-10-21T15:11:04.022Z,101153.45
2018-10-21T15:13:32.708Z,101154.67
2018-10-21T15:16:01.542Z,101151.05
2018-10-21T15:18:31.302Z,101151.80
2018-10-21T15:21:00.014Z,101156.66
2018-10-21T15:23:28.841Z,101152.53
2018-10-21T15:25:57.635Z,101149.05
2018-10-21T15:28:26.580Z,101144.91
2018-10-21T15:30:55.363Z,101141.57
2018-10-21T15:33:24.138Z,101148.94
2018-10-21T15:35:52.817Z,101143.95
2018-10-21T15:38:21.507Z,101143.50
2018-10-21T15:40:50.321Z,101143.17
2018-10-21T15:43:19.015Z,101141.83
2018-10-21T15:45:47.696Z,101144.81
2018-10-21T15:48:16.632Z,101141.66
2018-10-21T15:50:45.361Z,101142.66
2018-10-21T15:53:14.198Z,101143.78
2018-10-21T15:55:42.906Z,101149.73
2018-10-21T15:58:11.642Z,101145.69
2018-10-21T16:00:40.432Z,101143.33
2018-10-21T16:03:09.106Z,101150.95
2018-10-21T16:05:37.807Z,101146.27
2018-10-21T16:08:06.628Z,101149.32
2018-10-21T16:10:35.483Z,101151.25
2018-10-21T16:13:04.617Z,101161.48
2018-10-21T16:15:33.349Z,101157.41
2018-10-21T16:18:02.218Z,101160.17
2018-10-21T16:20:30.874Z,101158.41
2018-10-21T16:22:59.573Z,101163.55
2018-10-21T16:25:28.301Z,101164.03
2018-10-21T16:27:57.286Z,101169.41
2018-10-21T16:30:26.356Z,101170.24
2018-10-21T16:32:55.085Z,101165.37
2018-10-21T16:35:23.916Z,101164.22
2018-10-21T16:37:53.590Z,101168.07
2018-10-21T16:40:22.317Z,101170.75
2018-10-21T16:42:51.021Z,101166.13
2018-10-21T16:45:19.740Z,101174.17
2018-10-21T16:47:48.798Z,101171.59
2018-10-21T16:50:17.785Z,101180.16
2018-10-21T16:52:47.250Z,101180.22
2018-10-21T16:55:16.949Z,101181.12
2018-10-21T16:57:46.584Z,101182.66
2018-10-21T17:00:17.093Z,101184.70
2018-10-21T17:02:45.934Z,101188.44
2018-10-21T17:05:14.637Z,101180.47
2018-10-21T17:07:43.597Z,101183.99
2018-10-21T17:10:13.251Z,101182.85
2018-10-21T17:12:42.424Z,101181.34
2018-10-21T17:15:11.722Z,101181.55
2018-10-21T17:17:41.745Z,101183.22
2018-10-21T17:20:13.018Z,101183.61
2018-10-21T17:22:42.547Z,101183.61
2018-10-21T17:25:11.799Z,101184.28
2018-10-21T17:27:40.841Z,101179.97
2018-10-21T17:30:11.659Z,101175.95
2018-10-21T17:32:40.482Z,101176.31
2018-10-21T17:35:10.097Z,101179.48
2018-10-21T17:37:39.286Z,101183.06
2018-10-21T17:40:09.391Z,101184.54
2018-10-21T17:42:41.081Z,101183.94
2018-10-21T17:45:11.962Z,101181.39
2018-10-21T17:47:40.794Z,101186.55
2018-10-21T17:50:16.081Z,101184.77
2018-10-21T17:52:45.188Z,101183.86
2018-10-21T17:55:14.282Z,101183.02
2018-10-21T17:57:43.110Z,101181.84
2018-10-21T18:00:13.128Z,101187.66
2018-10-21T18:02:42.101Z,101189.00
2018-10-21T18:05:12.417Z,101183.91
2018-10-21T18:07:41.735Z,101185.82
2018-10-21T18:10:11.187Z,101184.00
2018-10-21T18:12:40.781Z,101187.88
2018-10-21T18:15:11.309Z,101182.73
2018-10-21T18:17:40.972Z,101177.77
2018-10-21T18:20:11.455Z,101189.55
2018-10-21T18:22:40.670Z,101189.20
2018-10-21T18:25:10.579Z,101185.18
2018-10-21T18:27:40.407Z,101188.17
2018-10-21T18:30:11.443Z,101188.17
2018-10-21T18:32:40.493Z,101184.70
2018-10-21T18:35:12.310Z,101187.29
2018-10-21T18:37:41.598Z,101184.12
2018-10-21T18:40:11.651Z,101183.78
2018-10-21T18:42:41.846Z,101185.60
2018-10-21T18:45:13.434Z,101181.63
2018-10-21T18:47:42.995Z,101184.33
2018-10-21T18:50:14.338Z,101185.45
2018-10-21T18:52:43.636Z,101185.78
2018-10-21T18:55:13.763Z,101184.89
2018-10-21T18:57:42.917Z,101189.69
2018-10-21T19:00:15.914Z,101184.90
2018-10-21T19:02:44.599Z,101186.83
2018-10-21T19:05:14.335Z,101184.76
2018-10-21T19:07:43.506Z,101186.97
2018-10-21T19:10:13.842Z,101186.22
2018-10-21T19:12:43.221Z,101191.42
2018-10-21T19:15:13.004Z,101182.45
2018-10-21T19:17:42.333Z,101176.96
2018-10-21T19:20:13.477Z,101186.27
2018-10-21T19:22:42.619Z,101187.64
2018-10-21T19:25:12.780Z,101183.34
2018-10-21T19:27:42.611Z,101189.20
2018-10-21T19:30:12.571Z,101186.80
2018-10-21T19:32:42.183Z,101185.55
2018-10-21T19:35:12.449Z,101185.82
2018-10-21T19:37:41.289Z,101187.08
2018-10-21T19:40:11.936Z,101181.34
2018-10-21T19:42:41.354Z,101184.62
2018-10-21T19:45:11.398Z,101179.45
2018-10-21T19:47:40.533Z,101182.13
2018-10-21T19:50:11.152Z,101184.33
2018-10-21T19:52:40.700Z,101184.67
2018-10-21T19:55:09.655Z,101180.98
2018-10-21T19:57:38.559Z,101177.41
2018-10-21T20:00:09.291Z,101186.34
2018-10-21T20:02:38.057Z,101185.36
2018-10-21T20:05:07.624Z,101177.01
2018-10-21T20:07:36.715Z,101177.19
2018-10-21T20:10:07.235Z,101170.44
2018-10-21T20:12:36.086Z,101171.45
2018-10-21T20:15:05.909Z,101171.45
2018-10-21T20:17:34.695Z,101169.64
2018-10-21T20:20:03.539Z,101175.96
2018-10-21T20:22:33.923Z,101178.33
2018-10-21T20:25:02.676Z,101168.27
2018-10-21T20:27:31.571Z,101167.42
2018-10-21T20:30:00.381Z,101156.31
2018-10-21T20:32:29.313Z,101159.98
2018-10-21T20:34:58.143Z,101166.53
2018-10-21T20:37:26.960Z,101163.27
2018-10-21T20:39:55.768Z,101167.31
2018-10-21T20:42:24.725Z,101166.50
2018-10-21T20:44:53.451Z,101169.09
2018-10-21T20:47:22.163Z,101166.58
2018-10-21T20:49:50.865Z,101163.52
2018-10-21T20:52:20.318Z,101166.31
2018-10-21T20:54:51.217Z,101164.72
2018-10-21T20:57:19.905Z,101165.02
2018-10-21T20:59:48.741Z,101162.33
2018-10-21T21:02:17.503Z,101160.56
2018-10-21T21:04:46.221Z,101166.81
2018-10-21T21:07:14.948Z,101163.48
2018-10-21T21:09:43.590Z,101162.80
2018-10-21T21:12:12.300Z,101161.63
2018-10-21T21:14:41.146Z,101163.58
2018-10-21T21:17:09.800Z,101161.33
2018-10-21T21:19:38.505Z,101160.11
2018-10-21T21:22:07.418Z,101158.37
2018-10-21T21:24:36.345Z,101160.42
2018-10-21T21:27:05.372Z,101153.28
2018-10-21T21:29:34.125Z,101151.52
2018-10-21T21:32:02.761Z,101154.92
2018-10-21T21:34:31.476Z,101147.01
2018-10-21T21:37:00.182Z,101149.73
2018-10-21T21:39:28.836Z,101151.27
2018-10-21T21:41:57.620Z,101154.80
2018-10-21T21:44:26.465Z,101147.75
2018-10-21T21:46:55.168Z,101143.72
2018-10-21T21:49:23.849Z,101145.58
2018-10-21T21:51:52.562Z,101146.77
2018-10-21T21:54:21.210Z,101146.84
2018-10-21T21:56:49.938Z,101144.75
2018-10-21T21:59:18.711Z,101148.98
2018-10-21T22:01:47.535Z,101148.69
2018-10-21T22:04:16.427Z,101151.98
2018-10-21T22:06:45.193Z,101142.88
2018-10-21T22:09:14.128Z,101140.86
2018-10-21T22:11:42.787Z,101142.78
2018-10-21T22:14:11.637Z,101139.92
2018-10-21T22:16:40.328Z,101138.61
2018-10-21T22:19:09.749Z,101141.24
2018-10-21T22:21:39.125Z,101135.72
2018-10-21T22:24:08.922Z,101133.95
2018-10-21T22:26:38.593Z,101136.45
2018-10-21T22:29:07.558Z,101131.79
2018-10-21T22:31:36.208Z,101127.94
2018-10-21T22:34:04.982Z,101121.47
2018-10-21T22:36:33.766Z,101122.08
2018-10-21T22:39:02.554Z,101121.24
2018-10-21T22:41:31.229Z,101127.25
2018-10-21T22:43:59.951Z,101129.63
2018-10-21T22:46:29.096Z,101135.27
2018-10-21T22:48:57.828Z,101131.81
2018-10-21T22:51:26.544Z,101128.94
2018-10-21T22:53:55.291Z,101139.25
2018-10-21T22:56:24.166Z,101142.23
2018-10-21T22:58:52.803Z,101142.96
2018-10-21T23:01:21.449Z,101146.89
2018-10-21T23:03:50.619Z,101146.41
2018-10-21T23:06:19.473Z,101145.84
2018-10-21T23:08:48.345Z,101142.83
2018-10-21T23:11:17.054Z,101142.13
2018-10-21T23:13:45.680Z,101137.44
2018-10-21T23:16:14.705Z,101137.77
2018-10-21T23:18:43.627Z,101133.20
2018-10-21T23:21:12.402Z,101132.98
2018-10-21T23:23:41.115Z,101128.80
2018-10-21T23:26:09.939Z,101126.52
2018-10-21T23:28:38.915Z,101123.75
2018-10-21T23:31:07.703Z,101127.58
2018-10-21T23:33:36.400Z,101119.06
2018-10-21T23:36:05.207Z,101119.41
2018-10-21T23:38:34.129Z,101112.56
2018-10-21T23:41:02.830Z,101104.87
2018-10-21T23:43:31.617Z,101106.80
2018-10-21T23:46:00.378Z,101103.16
2018-10-21T23:48:29.174Z,101099.59
2018-10-21T23:50:57.809Z,101097.09
2018-10-21T23:53:26.487Z,101104.34
2018-10-21T23:55:55.093Z,101105.44
2018-10-21T23:58:23.723Z,101099.58
